createdAt,value
2023-05-04T00:02:06.879Z,7.7
2023-05-04T00:03:06.209Z,7.6
2023-05-04T00:04:06.825Z,7.6
2023-05-04T00:05:06.480Z,7.6
2023-05-04T00:06:06.672Z,7.6
2023-05-04T00:07:06.760Z,7.6
2023-05-04T00:08:06.169Z,7.6
2023-05-04T00:09:06.526Z,7.6
2023-05-04T00:10:08.406Z,7.6
2023-05-04T00:11:06.240Z,7.6
2023-05-04T00:12:06.159Z,7.5
2023-05-04T00:13:06.621Z,7.5
2023-05-04T00:14:06.789Z,7.5
2023-05-04T00:15:07.080Z,7.5
2023-05-04T00:16:06.406Z,7.5
2023-05-04T00:17:06.711Z,7.5
2023-05-04T00:18:06.780Z,7.5
2023-05-04T00:19:06.988Z,7.5
2023-05-04T00:20:06.761Z,7.5
2023-05-04T00:24:06.273Z,7.5
2023-05-04T00:25:06.398Z,7.5
2023-05-04T00:26:06.687Z,7.5
2023-05-04T00:27:07.145Z,7.5
2023-05-04T00:28:05.837Z,7.5
2023-05-04T00:29:06.399Z,7.5
2023-05-04T00:30:07.366Z,7.5
2023-05-04T00:31:06.758Z,7.4
2023-05-04T00:33:06.237Z,7.4
2023-05-04T00:34:06.554Z,7.5
2023-05-04T00:35:06.551Z,7.5
2023-05-04T00:36:06.656Z,7.5
2023-05-04T00:37:06.734Z,7.4
2023-05-04T00:38:06.172Z,7.4
2023-05-04T00:39:06.608Z,6
2023-05-04T00:40:07.545Z,7.4
2023-05-04T00:41:06.951Z,7.4
2023-05-04T00:43:06.356Z,7.4
2023-05-04T00:44:06.636Z,7.4
2023-05-04T00:45:07.094Z,7.4
2023-05-04T00:46:06.406Z,7.4
2023-05-04T00:47:06.628Z,7.4
2023-05-04T00:48:06.876Z,7.4
2023-05-04T00:49:05.998Z,6
2023-05-04T00:50:07.066Z,7.4
2023-05-04T00:51:06.402Z,7.3
2023-05-04T00:52:06.829Z,7.4
2023-05-04T00:53:06.952Z,7.4
2023-05-04T00:54:06.246Z,7.4
2023-05-04T00:55:06.470Z,7.4
2023-05-04T00:56:06.300Z,7.3
2023-05-04T00:57:06.714Z,7.4
2023-05-04T00:58:06.927Z,7.3
2023-05-04T00:59:06.016Z,7.3
2023-05-04T01:00:06.787Z,6
2023-05-04T01:02:07.015Z,7.3
2023-05-04T01:03:06.106Z,7.3
2023-05-04T01:04:06.759Z,7.3
2023-05-04T01:05:06.709Z,7.2
2023-05-04T01:06:06.846Z,7.3
2023-05-04T01:07:05.915Z,7.2
2023-05-04T01:08:06.383Z,7.2
2023-05-04T01:09:06.938Z,7.2
2023-05-04T01:10:06.149Z,7.2
2023-05-04T01:11:06.051Z,7.2
2023-05-04T01:12:06.355Z,7.2
2023-05-04T01:13:06.767Z,7.2
2023-05-04T01:14:06.922Z,7.2
2023-05-04T01:15:06.263Z,7.2
2023-05-04T01:16:06.324Z,7.1
2023-05-04T01:17:06.718Z,7.1
2023-05-04T01:18:07.021Z,7.1
2023-05-04T01:19:06.765Z,7.1
2023-05-04T01:20:06.723Z,7.1
2023-05-04T01:25:06.403Z,7
2023-05-04T01:26:06.820Z,7
2023-05-04T01:27:06.186Z,7
2023-05-04T01:28:06.222Z,7
2023-05-04T01:29:06.779Z,7
2023-05-04T01:30:06.605Z,7
2023-05-04T01:31:06.475Z,7
2023-05-04T01:32:06.584Z,7
2023-05-04T01:33:07.082Z,7
2023-05-04T01:34:06.304Z,7
2023-05-04T01:35:06.568Z,7
2023-05-04T01:36:06.844Z,7
2023-05-04T01:37:06.924Z,6.9
2023-05-04T01:38:06.222Z,6.9
2023-05-04T01:39:06.533Z,6.8
2023-05-04T01:40:07.563Z,6
2023-05-04T01:41:06.328Z,6
2023-05-04T01:42:06.453Z,6.8
2023-05-04T01:43:06.725Z,5
2023-05-04T01:44:06.246Z,6.8
2023-05-04T01:45:06.547Z,6.8
2023-05-04T01:46:07.087Z,6.8
2023-05-04T01:47:06.139Z,6.8
2023-05-04T01:48:06.441Z,6.8
2023-05-04T01:49:06.569Z,6.8
2023-05-04T01:50:07.531Z,6.8
2023-05-04T01:51:06.862Z,6.8
2023-05-04T01:55:05.914Z,6.8
2023-05-04T01:56:06.147Z,6.8
2023-05-04T01:57:06.419Z,6.8
2023-05-04T01:58:06.582Z,6.8
2023-05-04T01:59:06.806Z,6.7
2023-05-04T02:00:06.638Z,6.7
2023-05-04T02:01:06.742Z,6.7
2023-05-04T02:02:06.246Z,6.7
2023-05-04T02:03:06.581Z,6.7
2023-05-04T02:04:06.602Z,6.7
2023-05-04T02:05:06.888Z,5
2023-05-04T02:06:06.066Z,5
2023-05-04T02:07:06.284Z,6.7
2023-05-04T02:08:06.404Z,6.7
2023-05-04T02:09:06.894Z,6.7
2023-05-04T02:10:06.828Z,6.7
2023-05-04T02:12:06.537Z,6.6
2023-05-04T02:13:07.012Z,6.6
2023-05-04T02:14:06.108Z,6.6
2023-05-04T02:15:06.330Z,6.6
2023-05-04T02:16:06.593Z,6.6
2023-05-04T02:17:05.996Z,6.6
2023-05-04T02:18:06.255Z,6.6
2023-05-04T02:19:06.377Z,6.6
2023-05-04T02:20:07.834Z,6.6
2023-05-04T02:21:06.124Z,6.6
2023-05-04T02:22:06.302Z,6.6
2023-05-04T02:23:06.614Z,6.6
2023-05-04T02:24:06.722Z,6.6
2023-05-04T02:25:06.149Z,6.6
2023-05-04T02:26:06.270Z,6.6
2023-05-04T02:27:06.733Z,6.6
2023-05-04T02:28:06.976Z,6.6
2023-05-04T02:29:06.345Z,6.6
2023-05-04T02:30:07.375Z,6.6
2023-05-04T02:31:06.082Z,6.6
2023-05-04T02:32:06.751Z,6.6
2023-05-04T02:33:07.097Z,6.6
2023-05-04T02:36:06.469Z,6.5
2023-05-04T02:37:09.349Z,6.5
2023-05-04T02:39:06.227Z,5
2023-05-04T02:40:06.917Z,6.5
2023-05-04T02:41:06.868Z,6.5
2023-05-04T02:42:06.250Z,6.5
2023-05-04T02:43:06.344Z,6.4
2023-05-04T02:44:06.570Z,6.4
2023-05-04T02:45:06.761Z,6.4
2023-05-04T02:46:06.549Z,6.4
2023-05-04T02:47:06.642Z,6.4
2023-05-04T02:48:07.150Z,6.4
2023-05-04T02:49:05.979Z,6.4
2023-05-04T02:50:06.987Z,6.4
2023-05-04T02:51:06.216Z,6.4
2023-05-04T02:52:06.514Z,6.4
2023-05-04T02:53:06.918Z,6.3
2023-05-04T02:56:06.045Z,6.3
2023-05-04T02:57:06.224Z,6.3
2023-05-04T02:58:06.333Z,6.2
2023-05-04T02:59:06.743Z,6.2
2023-05-04T03:00:06.721Z,6.2
2023-05-04T03:01:06.659Z,6.2
2023-05-04T03:02:06.809Z,6.2
2023-05-04T03:03:07.248Z,6.2
2023-05-04T03:04:06.352Z,6.1
2023-05-04T03:05:06.443Z,6.1
2023-05-04T03:06:06.492Z,6.1
2023-05-04T03:07:06.440Z,6.1
2023-05-04T03:08:06.109Z,6.1
2023-05-04T03:09:06.230Z,6.1
2023-05-04T03:10:06.854Z,6
2023-05-04T03:13:06.309Z,6
2023-05-04T03:14:06.349Z,6
2023-05-04T03:15:06.530Z,6
2023-05-04T03:16:06.149Z,6
2023-05-04T03:17:06.395Z,6
2023-05-04T03:18:07.066Z,6
2023-05-04T03:19:06.016Z,6
2023-05-04T03:20:06.666Z,6
2023-05-04T03:21:06.527Z,5.9
2023-05-04T03:22:06.871Z,5.9
2023-05-04T03:23:06.174Z,5.9
2023-05-04T03:24:06.597Z,5.8
2023-05-04T03:25:06.905Z,5.9
2023-05-04T03:26:06.910Z,5.9
2023-05-04T03:27:05.296Z,5.9
2023-05-04T03:28:06.431Z,5.9
2023-05-04T03:29:06.272Z,5.8
2023-05-04T03:30:07.054Z,5.8
2023-05-04T03:31:06.575Z,5.8
2023-05-04T03:35:08.411Z,5.8
2023-05-04T03:37:06.258Z,5.8
2023-05-04T03:38:06.413Z,5.8
2023-05-04T03:39:06.802Z,5.8
2023-05-04T03:40:07.231Z,5.8
2023-05-04T03:41:05.975Z,5.8
2023-05-04T03:42:06.059Z,5.8
2023-05-04T03:43:06.356Z,4
2023-05-04T03:44:06.779Z,4
2023-05-04T03:45:08.526Z,5.8
2023-05-04T03:46:06.547Z,5.8
2023-05-04T03:47:06.859Z,5.8
2023-05-04T03:48:06.174Z,5.8
2023-05-04T03:49:06.328Z,5.8
2023-05-04T03:50:07.680Z,5.8
2023-05-04T03:51:06.238Z,5.8
2023-05-04T03:52:06.661Z,5.7
2023-05-04T03:53:07.023Z,5.7
2023-05-04T03:54:05.985Z,5
2023-05-04T03:55:06.377Z,5
2023-05-04T03:56:06.598Z,5.8
2023-05-04T03:57:06.933Z,5.8
2023-05-04T03:58:06.139Z,5.8
2023-05-04T03:59:06.286Z,5.7
2023-05-04T04:00:07.341Z,5.7
2023-05-04T04:01:06.025Z,5.8
2023-05-04T04:02:06.347Z,5.7
2023-05-04T04:03:07.026Z,5.7
2023-05-04T04:04:07.069Z,5.7
2023-05-04T04:05:06.117Z,5.7
2023-05-04T04:06:06.654Z,5.8
2023-05-04T04:07:06.927Z,5.8
2023-05-04T04:08:06.314Z,5.8
2023-05-04T04:09:06.549Z,5.8
2023-05-04T04:10:07.539Z,5
2023-05-04T04:11:06.290Z,5.8
2023-05-04T04:12:06.791Z,5.8
2023-05-04T04:13:06.287Z,5.8
2023-05-04T04:14:06.440Z,5.8
2023-05-04T04:15:06.636Z,5.8
2023-05-04T04:16:06.510Z,5.8
2023-05-04T04:18:06.159Z,5.8
2023-05-04T04:19:06.401Z,5.8
2023-05-04T04:20:07.395Z,5.8
2023-05-04T04:21:06.750Z,5.8
2023-05-04T04:23:06.348Z,5.9
2023-05-04T04:24:06.654Z,5.9
2023-05-04T04:25:06.916Z,5.9
2023-05-04T04:26:06.031Z,5.9
2023-05-04T04:27:06.303Z,5.9
2023-05-04T04:28:06.722Z,6
2023-05-04T04:29:06.903Z,5.9
2023-05-04T04:30:06.632Z,6
2023-05-04T04:34:06.210Z,6
2023-05-04T04:35:06.229Z,6
2023-05-04T04:36:06.647Z,6
2023-05-04T04:37:05.902Z,6
2023-05-04T04:38:08.059Z,5
2023-05-04T04:39:06.101Z,6
2023-05-04T04:40:06.926Z,6.1
2023-05-04T04:42:06.642Z,6.1
2023-05-04T04:43:06.891Z,6.2
2023-05-04T04:44:06.095Z,6.2
2023-05-04T04:45:06.708Z,6.2
2023-05-04T04:46:05.872Z,6.2
2023-05-04T04:47:06.419Z,5
2023-05-04T04:48:06.530Z,6.2
2023-05-04T04:49:06.665Z,6.3
2023-05-04T04:50:07.832Z,6.3
2023-05-04T04:51:06.185Z,6.3
2023-05-04T04:52:06.412Z,6.3
2023-05-04T04:53:06.753Z,6.4
2023-05-04T04:54:06.301Z,6.4
2023-05-04T04:55:06.470Z,6.4
2023-05-04T04:56:06.597Z,6.5
2023-05-04T04:57:06.768Z,6.5
2023-05-04T04:58:06.637Z,6.5
2023-05-04T04:59:06.898Z,6.5
2023-05-04T05:00:07.022Z,6.7
2023-05-04T05:01:06.183Z,6.8
2023-05-04T05:02:06.501Z,6.8
2023-05-04T05:03:06.632Z,6.8
2023-05-04T05:04:06.810Z,6.8
2023-05-04T05:06:05.911Z,7.3
2023-05-04T05:07:06.588Z,8
2023-05-04T05:08:06.797Z,8
2023-05-04T05:09:06.046Z,8.5
2023-05-04T05:10:07.148Z,8.5
2023-05-04T05:11:06.274Z,8.6
2023-05-04T05:12:06.249Z,9.3
2023-05-04T05:13:06.718Z,10
2023-05-04T05:16:06.290Z,12
2023-05-04T05:17:06.728Z,12.8
2023-05-04T05:18:06.916Z,13.7
2023-05-04T05:19:06.909Z,14.1
2023-05-04T05:20:06.824Z,14.5
2023-05-04T05:21:06.498Z,15.3
2023-05-04T05:22:06.895Z,9
2023-05-04T05:23:06.007Z,16.1
2023-05-04T05:24:06.463Z,16.4
2023-05-04T05:25:06.753Z,16.9
2023-05-04T05:26:06.667Z,16.9
2023-05-04T05:27:06.963Z,16.8
2023-05-04T05:28:06.050Z,10
2023-05-04T05:29:06.414Z,10
2023-05-04T05:30:07.602Z,10
2023-05-04T05:31:06.553Z,16.9
2023-05-04T05:32:06.908Z,17
2023-05-04T05:33:06.924Z,17.2
2023-05-04T05:34:05.995Z,17.2
2023-05-04T05:35:06.805Z,17.3
2023-05-04T05:36:06.932Z,17.6
2023-05-04T05:40:06.577Z,18.4
2023-05-04T05:41:05.899Z,18.8
2023-05-04T05:42:06.251Z,19
2023-05-04T05:43:06.392Z,19
2023-05-04T05:44:05.897Z,19.2
2023-05-04T05:45:06.259Z,19.3
2023-05-04T05:46:07.109Z,19.8
2023-05-04T05:47:05.879Z,20
2023-05-04T05:48:06.508Z,20.2
2023-05-04T05:51:06.190Z,20
2023-05-04T05:52:06.532Z,20.2
2023-05-04T05:53:06.786Z,20.8
2023-05-04T05:54:06.202Z,20.8
2023-05-04T05:55:07.071Z,21.1
2023-05-04T05:56:06.744Z,21.4
2023-05-04T06:01:06.900Z,22.6
2023-05-04T06:02:07.049Z,22.6
2023-05-04T06:03:06.281Z,23
2023-05-04T06:04:07.147Z,23.2
2023-05-04T06:05:07.158Z,23.2
2023-05-04T06:06:06.144Z,23.5
2023-05-04T06:07:06.347Z,23.9
2023-05-04T06:08:06.637Z,23.9
2023-05-04T06:09:06.049Z,24
2023-05-04T06:10:06.779Z,24.2
2023-05-04T06:11:06.631Z,24.4
2023-05-04T06:12:06.865Z,24.4
2023-05-04T06:13:06.043Z,24.5
2023-05-04T06:14:06.049Z,24.6
2023-05-04T06:15:06.510Z,24.7
2023-05-04T06:16:06.968Z,24.8
2023-05-04T06:17:06.111Z,24.7
2023-05-04T06:18:06.718Z,24.9
2023-05-04T06:19:06.716Z,25
2023-05-04T06:20:07.377Z,12
2023-05-04T06:21:06.149Z,25
2023-05-04T06:22:06.478Z,24.9
2023-05-04T06:23:06.290Z,25
2023-05-04T06:24:06.947Z,24.9
2023-05-04T06:25:09.831Z,24.8
2023-05-04T06:27:06.650Z,24.3
2023-05-04T06:28:07.051Z,24.2
2023-05-04T06:29:06.206Z,23.9
2023-05-04T06:30:07.244Z,23.9
2023-05-04T06:31:06.025Z,23.6
2023-05-04T06:32:06.648Z,12
2023-05-04T06:33:06.500Z,12
2023-05-04T06:34:06.930Z,23.6
2023-05-04T06:35:05.552Z,23.6
2023-05-04T06:36:06.725Z,23.6
2023-05-04T06:37:06.401Z,23.6
2023-05-04T06:38:06.551Z,22.9
2023-05-04T06:39:06.695Z,22.9
2023-05-04T06:40:06.060Z,22.5
2023-05-04T06:41:06.716Z,22.3
2023-05-04T06:42:06.163Z,22.3
2023-05-04T06:43:06.334Z,22.4
2023-05-04T06:44:06.424Z,22.5
2023-05-04T06:45:06.867Z,22.5
2023-05-04T06:46:05.872Z,22.4
2023-05-04T06:47:06.073Z,22.4
2023-05-04T06:48:06.440Z,22.4
2023-05-04T06:49:06.594Z,22.4
2023-05-04T06:50:07.219Z,22.6
2023-05-04T06:51:06.542Z,22.8
2023-05-04T06:52:06.753Z,22.8
2023-05-04T06:57:06.104Z,23.1
2023-05-04T06:58:06.406Z,23.1
2023-05-04T06:59:06.541Z,23.3
2023-05-04T07:00:07.521Z,23.5
2023-05-04T07:01:05.954Z,23.6
2023-05-04T07:02:06.170Z,23.7
2023-05-04T07:03:06.547Z,23.6
2023-05-04T07:04:06.839Z,23.9
2023-05-04T07:05:06.135Z,23.9
2023-05-04T07:06:06.773Z,24.2
2023-05-04T07:07:06.021Z,24.2
2023-05-04T07:08:06.389Z,24.3
2023-05-04T07:09:06.660Z,24.5
2023-05-04T07:10:07.178Z,14
2023-05-04T07:12:06.862Z,24.2
2023-05-04T07:13:06.134Z,24
2023-05-04T07:14:07.908Z,23.8
2023-05-04T07:15:06.766Z,23.3
2023-05-04T07:16:06.794Z,22.9
2023-05-04T07:17:07.013Z,22.5
2023-05-04T07:18:06.380Z,21.8
2023-05-04T07:19:06.397Z,21.8
2023-05-04T07:20:07.877Z,21.2
2023-05-04T07:21:29.208Z,20.5
2023-05-04T07:23:06.686Z,20.2
2023-05-04T07:24:06.955Z,20
2023-05-04T07:25:06.116Z,20
2023-05-04T07:26:06.367Z,19.9
2023-05-04T07:27:06.547Z,19.6
2023-05-04T07:28:06.087Z,19.4
2023-05-04T07:29:06.270Z,19.4
2023-05-04T07:30:07.061Z,19.1
2023-05-04T07:33:06.404Z,18.8
2023-05-04T07:34:05.231Z,15
2023-05-04T07:35:06.347Z,18.5
2023-05-04T07:36:06.784Z,18.5
2023-05-04T07:37:05.935Z,18.4
2023-05-04T07:38:06.334Z,18.3
2023-05-04T07:39:06.660Z,18.3
2023-05-04T07:40:07.768Z,16
2023-05-04T07:41:06.649Z,18.1
2023-05-04T07:42:06.931Z,18
2023-05-04T07:43:05.967Z,17.9
2023-05-04T07:44:06.290Z,17.9
2023-05-04T07:45:06.894Z,17.9
2023-05-04T07:46:06.122Z,15
2023-05-04T07:47:06.356Z,17.8
2023-05-04T07:48:06.497Z,17.7
2023-05-04T07:49:06.579Z,17.7
2023-05-04T07:50:07.720Z,17.8
2023-05-04T07:51:06.277Z,18
2023-05-04T07:52:06.413Z,18
2023-05-04T07:53:06.857Z,18.1
2023-05-04T07:54:06.160Z,18.1
2023-05-04T07:55:06.369Z,18.2
2023-05-04T07:56:06.599Z,18.2
2023-05-04T07:57:06.058Z,18
2023-05-04T07:58:06.229Z,18
2023-05-04T07:59:06.534Z,17.9
2023-05-04T08:00:07.851Z,17.8
2023-05-04T08:01:06.198Z,17.8
2023-05-04T08:02:06.576Z,17.7
2023-05-04T08:03:06.866Z,17.5
2023-05-04T08:04:06.090Z,17.5
2023-05-04T08:05:06.370Z,17.5
2023-05-04T08:09:06.793Z,17.6
2023-05-04T08:10:06.397Z,17.6
2023-05-04T08:11:22.818Z,17.6
2023-05-04T08:13:06.499Z,17.7
2023-05-04T08:14:06.856Z,17.7
2023-05-04T08:15:06.566Z,17.6
2023-05-04T08:18:06.024Z,17.7
2023-05-04T08:19:06.224Z,17.6
2023-05-04T08:20:06.492Z,17.4
2023-05-04T08:21:06.577Z,17.4
2023-05-04T08:22:06.935Z,17.4
2023-05-04T08:23:05.894Z,17.5
2023-05-04T08:24:06.232Z,17.5
2023-05-04T08:25:07.235Z,16
2023-05-04T08:26:06.810Z,16
2023-05-04T08:27:12.841Z,17.4
2023-05-04T08:29:06.580Z,17.4
2023-05-04T08:30:06.779Z,17.5
2023-05-04T08:31:05.932Z,17.6
2023-05-04T08:32:06.738Z,17.6
2023-05-04T08:33:07.042Z,17.6
2023-05-04T08:34:05.885Z,17.6
2023-05-04T08:35:07.033Z,17.7
2023-05-04T08:36:06.924Z,17.8
2023-05-04T08:37:05.812Z,17.9
2023-05-04T08:38:06.464Z,17.9
2023-05-04T08:39:06.543Z,18
2023-05-04T08:40:06.847Z,18.1
2023-05-04T08:41:05.999Z,18.2
2023-05-04T08:42:06.321Z,18.1
2023-05-04T08:43:06.564Z,18.1
2023-05-04T08:44:06.758Z,18
2023-05-04T08:45:06.047Z,18
2023-05-04T08:46:06.197Z,18.1
2023-05-04T08:49:05.935Z,18.1
2023-05-04T08:50:06.290Z,17
2023-05-04T08:51:06.827Z,18.3
2023-05-04T08:53:06.922Z,18.4
2023-05-04T08:54:06.321Z,18.4
2023-05-04T08:55:07.185Z,18.5
2023-05-04T08:56:06.741Z,18.5
2023-05-04T08:57:07.102Z,18.5
2023-05-04T08:58:06.262Z,18.6
2023-05-04T08:59:06.598Z,18.7
2023-05-04T09:00:06.922Z,18.6
2023-05-04T09:01:06.394Z,18.6
2023-05-04T09:02:06.681Z,18.6
2023-05-04T09:03:06.973Z,18.7
2023-05-04T09:06:06.479Z,18.7
2023-05-04T09:10:06.102Z,18.7
2023-05-04T09:11:06.370Z,18.7
2023-05-04T09:12:06.656Z,18.8
2023-05-04T09:13:07.107Z,18.9
2023-05-04T09:14:06.033Z,18.9
2023-05-04T09:15:07.521Z,18.9
2023-05-04T09:16:06.407Z,18
2023-05-04T09:17:07.159Z,18
2023-05-04T09:18:06.975Z,18.9
2023-05-04T09:19:06.059Z,18.7
2023-05-04T09:20:06.367Z,18.7
2023-05-04T09:21:06.700Z,18.6
2023-05-04T09:22:06.931Z,18.6
2023-05-04T09:23:06.029Z,18.6
2023-05-04T09:24:06.427Z,18.6
2023-05-04T09:25:07.064Z,18.6
2023-05-04T09:26:06.691Z,18.6
2023-05-04T09:28:06.596Z,18.6
2023-05-04T09:29:06.726Z,18.6
2023-05-04T09:31:06.162Z,18.6
2023-05-04T09:32:06.325Z,18.6
2023-05-04T09:33:06.241Z,18.6
2023-05-04T09:34:06.420Z,18.6
2023-05-04T09:35:06.784Z,18.6
2023-05-04T09:36:06.490Z,18.6
2023-05-04T09:37:05.745Z,18.6
2023-05-04T09:38:05.785Z,18.6
2023-05-04T09:39:06.069Z,18.6
2023-05-04T09:41:06.204Z,18.6
2023-05-04T09:42:06.474Z,18.6
2023-05-04T09:43:05.459Z,18.6
2023-05-04T09:44:06.309Z,18.6
2023-05-04T09:45:06.937Z,18.6
2023-05-04T09:46:05.586Z,18.6
2023-05-04T09:47:06.410Z,18.6
2023-05-04T09:48:06.350Z,18.6
2023-05-04T09:49:06.123Z,18.6
2023-05-04T09:50:06.391Z,18.6
2023-05-04T09:51:06.828Z,18.6
2023-05-04T09:53:06.392Z,18.6
2023-05-04T09:54:05.648Z,18.6
2023-05-04T09:55:06.848Z,18.6
2023-05-04T09:56:08.801Z,18.6
2023-05-04T09:58:06.471Z,18.6
2023-05-04T09:59:06.606Z,18.6
2023-05-04T10:00:05.759Z,18.6
2023-05-04T10:02:24.688Z,18.6
2023-05-04T10:04:06.425Z,18.6
2023-05-04T10:05:06.732Z,18.6
2023-05-04T10:07:06.155Z,18.6
2023-05-04T10:08:07.032Z,18.6
2023-05-04T10:11:06.318Z,19
2023-05-04T10:12:06.518Z,19.5
2023-05-04T10:13:06.890Z,20
2023-05-04T10:14:05.978Z,20
2023-05-04T10:15:06.350Z,19.7
2023-05-04T10:16:06.361Z,19.8
2023-05-04T10:17:06.439Z,19.9
2023-05-04T10:18:06.680Z,19.9
2023-05-04T10:19:05.313Z,19.9
2023-05-04T10:20:06.892Z,20
2023-05-04T10:21:06.110Z,20
2023-05-04T10:22:06.337Z,20
2023-05-04T10:23:06.555Z,20
2023-05-04T10:24:06.862Z,20
2023-05-04T10:25:06.992Z,19.9
2023-05-04T10:26:06.216Z,19.7
2023-05-04T10:27:06.402Z,19.6
2023-05-04T10:28:06.604Z,19.7
2023-05-04T10:29:06.844Z,19.6
2023-05-04T10:33:06.044Z,19.8
2023-05-04T10:34:06.513Z,19.8
2023-05-04T10:35:07.319Z,19.8
2023-05-04T10:36:06.503Z,19.8
2023-05-04T10:37:06.650Z,19.7
2023-05-04T10:38:06.828Z,19.7
2023-05-04T10:39:06.180Z,19.7
2023-05-04T10:40:08.720Z,19.9
2023-05-04T10:41:06.098Z,20
2023-05-04T10:42:06.404Z,20
2023-05-04T10:43:05.178Z,20
2023-05-04T10:44:06.353Z,19.9
2023-05-04T10:45:07.224Z,19.9
2023-05-04T10:46:06.871Z,19.9
2023-05-04T10:48:06.284Z,20
2023-05-04T10:49:06.334Z,20
2023-05-04T10:50:06.811Z,20.1
2023-05-04T10:51:07.122Z,20
2023-05-04T10:52:06.946Z,20.1
2023-05-04T10:54:06.548Z,20.1
2023-05-04T10:55:07.340Z,20.1
2023-05-04T10:56:06.170Z,20.2
2023-05-04T10:57:06.238Z,20.2
2023-05-04T10:58:06.681Z,20.2
2023-05-04T10:59:06.136Z,20.3
2023-05-04T11:00:06.601Z,20.3
2023-05-04T11:01:06.320Z,20.3
2023-05-04T11:02:06.634Z,20.3
2023-05-04T11:03:07.128Z,21
2023-05-04T11:05:07.546Z,20.3
2023-05-04T11:07:06.336Z,20.2
2023-05-04T11:08:06.458Z,20.3
2023-05-04T11:09:06.590Z,20.4
2023-05-04T11:10:06.973Z,20.4
2023-05-04T11:11:06.594Z,20.4
2023-05-04T11:12:06.685Z,20.3
2023-05-04T11:13:06.905Z,20.4
2023-05-04T11:14:06.243Z,20.4
2023-05-04T11:15:07.157Z,20.4
2023-05-04T11:17:28.937Z,20.4
2023-05-04T11:19:06.128Z,20.4
2023-05-04T11:20:06.376Z,20.4
2023-05-04T11:21:06.648Z,20.4
2023-05-04T11:22:06.940Z,20.4
2023-05-04T11:23:06.262Z,20.5
2023-05-04T11:24:06.654Z,20.5
2023-05-04T11:25:07.116Z,22
2023-05-04T11:26:06.606Z,20.5
2023-05-04T11:27:06.993Z,20.5
2023-05-04T11:28:06.306Z,20.4
2023-05-04T11:29:06.535Z,20.5
2023-05-04T11:30:06.838Z,20.5
2023-05-04T11:31:06.435Z,20.6
2023-05-04T11:32:06.543Z,20.6
2023-05-04T11:33:06.795Z,20.6
2023-05-04T11:34:06.024Z,20.4
2023-05-04T11:35:06.654Z,20.4
2023-05-04T11:38:06.110Z,20.4
2023-05-04T11:39:05.655Z,20.4
2023-05-04T11:40:06.712Z,20.2
2023-05-04T11:41:05.992Z,20.1
2023-05-04T11:42:06.300Z,20.1
2023-05-04T11:43:06.564Z,20.3
2023-05-04T11:44:07.109Z,22
2023-05-04T11:45:06.753Z,20.4
2023-05-04T11:48:06.300Z,20.6
2023-05-04T11:49:06.378Z,20.6
2023-05-04T11:50:06.867Z,20.7
2023-05-04T11:51:06.880Z,21
2023-05-04T11:53:06.244Z,20.8
2023-05-04T11:54:06.416Z,20.8
2023-05-04T11:55:07.308Z,20.8
2023-05-04T11:57:05.914Z,21
2023-05-04T11:58:06.594Z,21
2023-05-04T11:59:06.952Z,20.9
2023-05-04T12:00:06.070Z,20.9
2023-05-04T12:01:06.936Z,20.8
2023-05-04T12:02:05.910Z,20.7
2023-05-04T12:03:06.324Z,20.7
2023-05-04T12:04:06.604Z,20.8
2023-05-04T12:05:07.092Z,20.9
2023-05-04T12:10:06.368Z,21.2
2023-05-04T12:11:06.841Z,21.2
2023-05-04T12:12:06.065Z,21.2
2023-05-04T12:13:06.534Z,21.1
2023-05-04T12:14:06.586Z,21.1
2023-05-04T12:15:07.139Z,21.1
2023-05-04T12:16:06.529Z,21.2
2023-05-04T12:17:06.764Z,21.2
2023-05-04T12:18:07.657Z,21.3
2023-05-04T12:19:06.238Z,21.4
2023-05-04T12:20:06.546Z,21
2023-05-04T12:21:08.174Z,21.3
2023-05-04T12:22:06.522Z,21.3
2023-05-04T12:23:06.929Z,21.3
2023-05-04T12:24:06.128Z,21.3
2023-05-04T12:25:07.167Z,21.3
2023-05-04T12:26:06.238Z,21.2
2023-05-04T12:27:06.528Z,21.2
2023-05-04T12:28:06.907Z,21.2
2023-05-04T12:29:06.974Z,21.3
2023-05-04T12:30:06.236Z,21.3
2023-05-04T12:31:06.146Z,21.3
2023-05-04T12:32:06.439Z,21.3
2023-05-04T12:36:05.926Z,21.3
2023-05-04T12:37:06.428Z,21.2
2023-05-04T12:38:06.650Z,21.1
2023-05-04T12:39:06.835Z,21.1
2023-05-04T12:40:17.583Z,21.1
2023-05-04T12:41:06.080Z,21.1
2023-05-04T12:42:06.277Z,21.2
2023-05-04T12:43:06.546Z,21.3
2023-05-04T12:44:06.850Z,21.3
2023-05-04T12:45:06.457Z,21.2
2023-05-04T12:46:06.074Z,21.3
2023-05-04T12:47:06.509Z,21.3
2023-05-04T12:48:06.800Z,21.3
2023-05-04T12:52:06.033Z,21.2
2023-05-04T12:53:06.391Z,21.2
2023-05-04T12:54:06.728Z,23
2023-05-04T12:55:07.445Z,21.3
2023-05-04T12:56:06.001Z,21.3
2023-05-04T12:57:06.371Z,21.3
2023-05-04T12:58:06.573Z,21.3
2023-05-04T12:59:06.835Z,21.3
2023-05-04T13:00:06.324Z,21.3
2023-05-04T13:01:06.644Z,21.3
2023-05-04T13:02:06.786Z,21.2
2023-05-04T13:03:06.332Z,21.2
2023-05-04T13:04:05.943Z,21.1
2023-05-04T13:05:06.796Z,21.1
2023-05-04T13:07:06.074Z,21.2
2023-05-04T13:08:06.311Z,21.2
2023-05-04T13:09:06.634Z,21.2
2023-05-04T13:10:06.985Z,21.1
2023-05-04T13:11:06.101Z,21.1
2023-05-04T13:12:06.331Z,21.1
2023-05-04T13:13:06.669Z,21.2
2023-05-04T13:14:06.785Z,21.1
2023-05-04T13:15:06.513Z,21.2
2023-05-04T13:16:06.695Z,21.2
2023-05-04T13:17:06.745Z,21.2
2023-05-04T13:18:06.136Z,21.1
2023-05-04T13:19:05.681Z,21.1
2023-05-04T13:20:07.544Z,21
2023-05-04T13:21:07.028Z,21
2023-05-04T13:23:06.643Z,21.1
2023-05-04T13:24:06.754Z,21.1
2023-05-04T13:25:06.400Z,21.1
2023-05-04T13:26:06.681Z,21.2
2023-05-04T13:27:06.901Z,21.2
2023-05-04T13:28:05.986Z,21.2
2023-05-04T13:29:06.249Z,21.2
2023-05-04T13:30:06.577Z,21.2
2023-05-04T13:31:06.943Z,21.2
2023-05-04T13:32:06.263Z,21.2
2023-05-04T13:33:30.681Z,21.1
2023-05-04T13:35:06.508Z,21.1
2023-05-04T13:36:06.515Z,21
2023-05-04T13:37:06.300Z,21.1
2023-05-04T13:38:06.755Z,21.1
2023-05-04T13:39:05.812Z,21.1
2023-05-04T13:40:05.319Z,21.1
2023-05-04T13:41:06.263Z,21.1
2023-05-04T13:42:06.488Z,21.1
2023-05-04T13:43:04.937Z,21.1
2023-05-04T13:44:06.238Z,21.1
2023-05-04T13:45:07.136Z,21.1
2023-05-04T13:46:06.178Z,21.2
2023-05-04T13:47:06.697Z,21.2
2023-05-04T13:48:06.888Z,21.2
2023-05-04T13:51:06.561Z,21.2
2023-05-04T13:52:06.695Z,21.2
2023-05-04T13:53:06.014Z,21.3
2023-05-04T13:54:06.967Z,21.3
2023-05-04T13:55:06.565Z,23
2023-05-04T13:56:06.725Z,21.2
2023-05-04T13:57:06.137Z,21.2
2023-05-04T13:58:06.327Z,21.2
2023-05-04T13:59:06.594Z,21.2
2023-05-04T14:00:12.441Z,21.3
2023-05-04T14:02:07.274Z,21.3
2023-05-04T14:03:06.129Z,21.3
2023-05-04T14:04:07.033Z,21.3
2023-05-04T14:05:06.718Z,21.4
2023-05-04T14:08:06.040Z,21.2
2023-05-04T14:09:06.265Z,21.2
2023-05-04T14:10:06.579Z,21.2
2023-05-04T14:11:06.567Z,21.1
2023-05-04T14:12:06.209Z,21.1
2023-05-04T14:13:06.489Z,21
2023-05-04T14:14:06.891Z,21
2023-05-04T14:15:06.427Z,21
2023-05-04T14:18:06.685Z,20.9
2023-05-04T14:19:06.855Z,20.8
2023-05-04T14:20:06.172Z,20.8
2023-05-04T14:21:05.354Z,23
2023-05-04T14:22:06.484Z,20.8
2023-05-04T14:23:06.998Z,20.7
2023-05-04T14:24:05.378Z,20.7
2023-05-04T14:25:07.018Z,20.7
2023-05-04T14:27:05.294Z,20.7
2023-05-04T14:28:06.364Z,20.7
2023-05-04T14:29:06.094Z,22
2023-05-04T14:30:06.529Z,20.6
2023-05-04T14:31:06.785Z,20.6
2023-05-04T14:32:05.964Z,20.6
2023-05-04T14:33:06.397Z,20.6
2023-05-04T14:34:06.409Z,20.6
2023-05-04T14:35:07.056Z,20.6
2023-05-04T14:36:06.186Z,20.6
2023-05-04T14:37:06.484Z,20.6
2023-05-04T14:38:06.626Z,20.6
2023-05-04T14:39:06.923Z,20.7
2023-05-04T14:40:06.571Z,22
2023-05-04T14:41:06.555Z,20.8
2023-05-04T14:42:06.856Z,20.8
2023-05-04T14:43:06.997Z,20.8
2023-05-04T14:44:06.191Z,20.8
2023-05-04T14:45:07.232Z,20.8
2023-05-04T14:46:06.543Z,20.8
2023-05-04T14:47:07.598Z,20.8
2023-05-04T14:48:06.181Z,20.8
2023-05-04T14:49:06.328Z,20.8
2023-05-04T14:50:06.112Z,20.8
2023-05-04T14:51:06.142Z,20.7
2023-05-04T14:52:06.367Z,20.7
2023-05-04T14:55:06.315Z,20.8
2023-05-04T14:56:06.548Z,20.8
2023-05-04T14:57:06.938Z,20.7
2023-05-04T14:58:06.087Z,20.7
2023-05-04T14:59:06.663Z,20.6
2023-05-04T15:00:07.316Z,20.6
2023-05-04T15:01:05.943Z,20.7
2023-05-04T15:02:06.336Z,20.7
2023-05-04T15:03:06.820Z,20.7
2023-05-04T15:04:06.469Z,20.6
2023-05-04T15:05:06.281Z,20.7
2023-05-04T15:06:06.946Z,20.7
2023-05-04T15:10:06.344Z,20.7
2023-05-04T15:11:06.334Z,20.7
2023-05-04T15:12:06.618Z,20.7
2023-05-04T15:13:06.339Z,20.7
2023-05-04T15:14:05.399Z,20.7
2023-05-04T15:15:06.512Z,20.7
2023-05-04T15:16:06.284Z,22
2023-05-04T15:17:06.250Z,22
2023-05-04T15:18:06.882Z,20.7
2023-05-04T15:19:06.983Z,20.6
2023-05-04T15:20:06.768Z,20.6
2023-05-04T15:21:06.825Z,20.6
2023-05-04T15:22:06.022Z,20.6
2023-05-04T15:23:06.468Z,20.5
2023-05-04T15:24:06.549Z,20.5
2023-05-04T15:25:06.981Z,20.5
2023-05-04T15:26:06.197Z,20.5
2023-05-04T15:27:06.648Z,20.5
2023-05-04T15:28:06.742Z,20.6
2023-05-04T15:29:06.746Z,20.6
2023-05-04T15:30:06.018Z,20.6
2023-05-04T15:31:06.289Z,20.5
2023-05-04T15:32:06.973Z,20.6
2023-05-04T15:33:07.178Z,20.5
2023-05-04T15:34:06.316Z,20.5
2023-05-04T15:35:10.114Z,20.5